Rushville, OH (43150)

6:05 PM EDT on September 04, 2015 (GMT -0400)
Northern Lancaster Area | | Change Station
CLOSE
Current Station
Personal Weather Station
Location: Lancaster, OH
Elevation: 1000 ft
Nearby Weather Stations

Elev 1000 ft 39.76 °N, 82.57 °W | Updated 7 minutes ago

Mostly Cloudy
Mostly Cloudy
67.5 °F
Feels Like 67.5 °F
N
2.0
Wind Variable Wind from East
Gusts 9.0 mph

Today
High -- | Low -- °F
--% Chance of Precip.
Yesterday
High -- | Low -- °F
Precip. -- in
7:00 AM 7:56 PM
Waning Gibbous, 55% visible
Pressure 30.10 in
Visibility 3.0 miles
Clouds
Dew Point 67 °F
Humidity 97%
Rainfall 0.86 in
Snow Depth Not available.
UV Not available.
Pollen 9.90 out of 12
Air Quality Not available.
Flu Activity Not available.
SPECI KLHQ 042202Z AUTO 11004KT 3SM -TSRA 21/17 A3010 RMK AO2 LTG DSNT ALQDS P0005 T02110172
Pressure 30.10 in
Visibility 3.0 miles
Clouds
Dew Point 67 °F
Humidity 97%
Rainfall 0.86 in
Snow Depth Not available.
UV Not available.
Pollen 9.90 out of 12
Air Quality Not available.
Flu Activity Not available.
SPECI KLHQ 042202Z AUTO 11004KT 3SM -TSRA 21/17 A3010 RMK AO2 LTG DSNT ALQDS P0005 T02110172

10-Day Weather Forecast

×

Almanac

Astronomy

Sep. 04, 2015 Rise Set
Actual Time
Civil Twilight
Nautical Twilight
Astronomical Twilight
Moon
Length of Visible Light
Length of Day
Tomorrow will be .
, % of the Moon is Illuminated

Today's Extremes

State Highs State Lows

Community

WunderPhotos

Upload Photos

1,852,305 photos uploaded!

WunderBlogs® & News

Nearby

Air Quality

  Air Quality AQ Index Pollutant
Not available.

Snow Depth

Station Depth Elevation

Earthquake Activity

City Distance Mag. Time & Date
Minimum magnitude displayed is 2.5.

Coastal Water Temperatures

Place Temperature

Stations

Nearby Weather Stations

Station Location Temp. Windchill Dew Point Humidity Wind Precip. Elev Updated Type